Brainardsville, New York
Current Conditions -  °F | °C
As of 1:12 PM on Friday 24 Oct 2014 (Local Time) from KPBG Reporting Station
Overcast Overcast  
Wind Chill: 50°   Ceiling: 2900
Heat Index: 50°   Visibility: 10mi
Dew Point: 41°   Wind: 12mph
Humidity: 71%   Direction: 350°N
Pressure: 29.84"   Gusts: NA
Location:  44.86°N, 74.03°W
Report Text: KPBG 241712Z AUTO 35010KT 10SM OVC029 10/05 A2984 RMK AO2 T01000050
Loading
Personal Weather Stations






























Interactive Weather Map
Tropical Storm Tracking
New forecast layout! Learn more

10-Day Weather Forecast

Advertisements
Track Severe Weather on mobile